LiveATC.Net - Listen to live air traffic control over the Internet!

ICAO: EIDW  IATA: DUB   Airport: Dublin International Airport
City: Dublin
Country: Ireland   Continent: Europe
EIDW METAR Weather: EIDW 280000Z 25015KT 9000 -DZ FEW010 BKN015 13/11 Q1028 NOSIG
EIDW Flight Activity (FlightAware)
EIDW Del/Gnd/Twr/App/Center
Feed Status: UP   Listeners: 10
Listen right in your browser - requires Flash (in browser, requires Flash)
Click here to listen with your own player (launches your MP3 player)
Click here to listen with Windows Media Player (Windows Media Player)
EIDW Del/Gnd/Twr/App/Center Audio Archives
Dublin Approach121.100
Dublin Approach (backup)119.550
Dublin Centre North129.175
Dublin Centre South126.250
Dublin Clearance Delivery121.875
Dublin FIS118.500
Dublin Ground121.800
Dublin Tower118.600


Unauthorized use prohibited. See Terms of Service

Find LiveATC Audio Streams

Airport/ARTCC Code

(e.g., 124.400, 128.75)
Site-wide search

Browse LiveATC Feeds
LiveATC Coverage Map
Top 50 LiveATC Feeds
Bad Weather Areas

Offer a LiveATC Feed
Press Inquiries

LiveATC on iPhone
LiveATC on Android

Windows Phone
Windows 8/10

LiveATC Mobile
(Mobile browser)

ATC Audio Archives
Interesting Recordings

LiveATC Forums

Home Page
Make a Donation
LiveATC Store

Terms of Use
Privacy Policy

Canadian Air Freqs


FAA Airport Status
Nat'l Airspace Status
Arrival Demand Charts

Server Software By: